| time (UTC) | temp F | wind direction | speed MPH | gust MPH | rain 1hr in | rain 24hr in | rain mn in | humidity % | barometer mb |
| 20260507075644 | 50 | 108 | 5.0 | 8.0 | 0.00 | 0.04 | 0.00 | 78 | 1016.4 |
| 20260507073432 | 50 | 106 | 5.0 | 9.0 | 0.00 | 0.04 | 0.00 | 79 | 1016.2 |
| 20260507072408 | 50 | 95 | 5.0 | 9.0 | 0.00 | 0.04 | 0.00 | 80 | 1016.2 |
| 20260507071337 | 49 | 72 | 6.0 | 9.0 | 0.00 | 0.04 | 0.00 | 81 | 1016.1 |
| 20260507070308 | 49 | 61 | 6.0 | 9.0 | 0.00 | 0.04 | 0.00 | 82 | 1016.1 |
| 20260507065308 | 49 | 69 | 3.0 | 8.0 | 0.00 | 0.04 | 0.00 | 83 | 1016.1 |
| 20260507063213 | 48 | 82 | 3.0 | 5.0 | 0.00 | 0.04 | 0.00 | 85 | 1016.0 |
| 20260507062234 | 48 | 85 | 2.0 | 4.0 | 0.00 | 0.04 | 0.00 | 85 | 1016.0 |
| 20260507061210 | 47 | 85 | 1.0 | 3.0 | 0.00 | 0.04 | 0.00 | 86 | 1016.0 |
| 20260507060202 | 47 | 85 | 3.0 | 5.0 | 0.00 | 0.04 | 0.00 | 86 | 1015.9 |
| 20260507055213 | 46 | 85 | 2.0 | 5.0 | 0.00 | 0.04 | 0.00 | 87 | 1015.8 |
| 20260507054227 | 46 | 69 | 2.0 | 4.0 | 0.00 | 0.04 | 0.00 | 87 | 1015.8 |
| 20260507052036 | 45 | 69 | 2.0 | 5.0 | 0.00 | 0.04 | 0.00 | 88 | 1015.8 |
| 20260507051026 | 45 | 63 | 1.0 | 4.0 | 0.00 | 0.04 | 0.00 | 88 | 1015.7 |
| 20260507050007 | 45 | 151 | 1.0 | 3.0 | 0.00 | 0.04 | 0.00 | 88 | 1015.6 |
| 20260507045017 | 45 | 151 | 1.0 | 3.0 | 0.00 | 0.04 | 0.00 | 89 | 1015.5 |
| 20260507044020 | 45 | 153 | 0.0 | 2.0 | 0.00 | 0.04 | 0.00 | 89 | 1015.4 |
| 20260507043031 | 45 | 153 | 0.0 | 2.0 | 0.00 | 0.04 | 0.00 | 89 | 1015.4 |
| 20260507042019 | 45 | 153 | 0.0 | 2.0 | 0.00 | 0.04 | 0.00 | 89 | 1015.4 |
| 20260507040954 | 45 | 321 | 0.0 | 0.0 | 0.00 | 0.04 | 0.00 | 89 | 1015.3 |
| 20260507040016 | 45 | 321 | 0.0 | 2.0 | 0.00 | 0.04 | 0.00 | 89 | 1015.3 |
| 20260507035016 | 45 | 321 | 0.0 | 2.0 | 0.00 | 0.04 | 0.00 | 89 | 1015.3 |
| 20260507032802 | 45 | 317 | 0.0 | 3.0 | 0.00 | 0.04 | 0.00 | 89 | 1015.2 |
| 20260507031756 | 45 | 305 | 1.0 | 2.0 | 0.00 | 0.04 | 0.00 | 89 | 1015.2 |
| 20260507030811 | 45 | 305 | 0.0 | 2.0 | 0.00 | 0.04 | 0.00 | 89 | 1015.3 |
| 20260507025812 | 45 | 305 | 0.0 | 2.0 | 0.00 | 0.04 | 0.00 | 89 | 1015.2 |
| 20260507023653 | 45 | 305 | 0.0 | 2.0 | 0.00 | 0.04 | 0.00 | 89 | 1015.1 |
| 20260507022707 | 45 | 305 | 0.0 | 1.0 | 0.00 | 0.04 | 0.00 | 89 | 1015.0 |
| 20260507021726 | 45 | 305 | 0.0 | 2.0 | 0.00 | 0.04 | 0.00 | 89 | 1015.0 |
| 20260507020720 | 46 | 305 | 1.0 | 4.0 | 0.00 | 0.04 | 0.00 | 89 | 1014.9 |
| 20260507015706 | 46 | 305 | 2.0 | 4.0 | 0.00 | 0.04 | 0.00 | 89 | 1014.9 |
| 20260507014710 | 46 | 342 | 1.0 | 2.0 | 0.00 | 0.04 | 0.00 | 88 | 1014.9 |
| 20260507013637 | 46 | 5 | 1.0 | 4.0 | 0.00 | 0.04 | 0.00 | 88 | 1014.8 |
| 20260507012622 | 47 | 11 | 2.0 | 4.0 | 0.00 | 0.04 | 0.00 | 88 | 1014.8 |
| 20260507011634 | 47 | 19 | 2.0 | 3.0 | 0.00 | 0.04 | 0.00 | 88 | 1014.8 |
| 20260507010659 | 47 | 32 | 2.0 | 3.0 | 0.00 | 0.04 | 0.00 | 87 | 1014.8 |
| 20260507005702 | 47 | 32 | 2.0 | 3.0 | 0.00 | 0.04 | 0.00 | 88 | 1014.7 |
| 20260507004720 | 47 | 32 | 2.0 | 4.0 | 0.00 | 0.04 | 0.00 | 87 | 1014.7 |
| 20260507003702 | 47 | 32 | 2.0 | 4.0 | 0.00 | 0.04 | 0.00 | 87 | 1014.7 |
| 20260507002641 | 47 | 34 | 2.0 | 4.0 | 0.00 | 0.04 | 0.00 | 87 | 1014.7 |
| 20260507001628 | 47 | 25 | 2.0 | 4.0 | 0.00 | 0.04 | 0.00 | 87 | 1014.8 |
| 20260507000625 | 47 | 24 | 2.0 | 4.0 | 0.00 | 0.04 | 0.00 | 87 | 1014.8 |
| 20260506234519 | 47 | 32 | 2.0 | 6.0 | 0.00 | 0.04 | 0.00 | 86 | 1014.9 |
| 20260506233507 | 48 | 43 | 4.0 | 6.0 | 0.00 | 0.04 | 0.00 | 86 | 1014.7 |
| 20260506231327 | 48 | 55 | 4.0 | 7.0 | 0.00 | 0.04 | 0.00 | 86 | 1014.7 |
| 20260506230326 | 48 | 65 | 5.0 | 7.0 | 0.00 | 0.04 | 0.00 | 86 | 1014.6 |
| 20260506225316 | 48 | 65 | 4.0 | 6.0 | 0.00 | 0.04 | 0.04 | 86 | 1014.5 |
| 20260506224306 | 48 | 57 | 4.0 | 5.0 | 0.00 | 0.04 | 0.04 | 87 | 1014.7 |
| 20260506223258 | 48 | 57 | 2.0 | 4.0 | 0.00 | 0.04 | 0.04 | 86 | 1014.7 |
| 20260506222306 | 48 | 57 | 3.0 | 5.0 | 0.00 | 0.04 | 0.04 | 86 | 1014.5 |
| 20260506221232 | 48 | 58 | 4.0 | 6.0 | 0.00 | 0.04 | 0.04 | 86 | 1014.4 |
| 20260506220208 | 48 | 58 | 4.0 | 5.0 | 0.00 | 0.04 | 0.04 | 86 | 1014.4 |
| 20260506214052 | 49 | 67 | 5.0 | 8.0 | 0.00 | 0.04 | 0.04 | 85 | 1014.4 |
| 20260506213058 | 49 | 72 | 5.0 | 9.0 | 0.00 | 0.04 | 0.04 | 85 | 1014.3 |
| 20260506211000 | 49 | 67 | 7.0 | 9.0 | 0.00 | 0.04 | 0.04 | 84 | 1014.3 |
| 20260506205951 | 49 | 76 | 6.0 | 9.0 | 0.00 | 0.04 | 0.04 | 84 | 1014.3 |
| 20260506205010 | 49 | 78 | 6.0 | 10.0 | 0.00 | 0.04 | 0.04 | 84 | 1014.2 |
| 20260506204034 | 50 | 85 | 5.0 | 10.0 | 0.00 | 0.04 | 0.04 | 84 | 1014.0 |
| 20260506201842 | 50 | 80 | 8.0 | 11.0 | 0.00 | 0.04 | 0.04 | 84 | 1014.0 |
| 20260506200854 | 49 | 74 | 9.0 | 11.0 | 0.00 | 0.04 | 0.04 | 85 | 1013.9 |
| 20260506195850 | 49 | 84 | 8.0 | 10.0 | 0.06 | 0.04 | 0.04 | 87 | 1013.8 |
| 20260506194905 | 49 | 88 | 4.0 | 9.0 | 0.09 | 0.03 | 0.04 | 89 | 1013.8 |
| 20260506193855 | 49 | 53 | 3.0 | 5.0 | 0.00 | 0.02 | 0.02 | 89 | 1013.6 |
| 20260506192829 | 49 | 45 | 2.0 | 5.0 | 0.00 | 0.02 | 0.02 | 89 | 1013.6 |
| 20260506191820 | 49 | 24 | 2.0 | 3.0 | 0.00 | 0.02 | 0.02 | 88 | 1013.5 |
| 20260506190803 | 50 | 34 | 2.0 | 3.0 | 0.00 | 0.02 | 0.02 | 88 | 1013.4 |
| 20260506184652 | 50 | 59 | 5.0 | 8.0 | 0.00 | 0.01 | 0.01 | 87 | 1013.3 |
| 20260506183708 | 50 | 69 | 4.0 | 8.0 | 0.00 | 0.01 | 0.01 | 88 | 1013.1 |
| 20260506182646 | 50 | 64 | 3.0 | 5.0 | 0.00 | 0.01 | 0.01 | 88 | 1013.0 |
| 20260506181629 | 50 | 48 | 3.0 | 5.0 | 0.00 | 0.01 | 0.01 | 88 | 1012.9 |
| 20260506180627 | 50 | 49 | 3.0 | 5.0 | 0.00 | 0.01 | 0.01 | 88 | 1012.7 |
| 20260506175610 | 50 | 51 | 3.0 | 5.0 | 0.00 | 0.01 | 0.01 | 88 | 1012.7 |
| 20260506174609 | 49 | 51 | 3.0 | 5.0 | 0.00 | 0.01 | 0.01 | 88 | 1012.7 |
| 20260506173610 | 49 | 49 | 4.0 | 8.0 | 0.00 | 0.00 | 0.00 | 88 | 1012.7 |
| 20260506172542 | 49 | 50 | 6.0 | 11.0 | 0.00 | 0.00 | 0.00 | 88 | 1012.8 |
| 20260506170418 | 50 | 79 | 10.0 | 13.0 | 0.00 | 0.00 | 0.00 | 87 | 1012.6 |
| 20260506165406 | 51 | 61 | 11.0 | 14.0 | 0.00 | 0.00 | 0.00 | 84 | 1012.6 |
| 20260506164339 | 52 | 47 | 7.0 | 14.0 | 0.00 | 0.00 | 0.00 | 80 | 1012.6 |
| 20260506163304 | 52 | 5 | 7.0 | 11.0 | 0.00 | 0.00 | 0.00 | 79 | 1012.5 |
| 20260506162246 | 52 | 355 | 6.0 | 9.0 | 0.00 | 0.00 | 0.00 | 80 | 1012.4 |
| 20260506161255 | 52 | 5 | 4.0 | 8.0 | 0.00 | 0.00 | 0.00 | 79 | 1012.3 |
| 20260506160307 | 52 | 5 | 4.0 | 8.0 | 0.00 | 0.00 | 0.00 | 79 | 1012.4 |
| 20260506152954 | 51 | 355 | 3.0 | 5.0 | 0.00 | 0.00 | 0.00 | 83 | 1012.4 |
| 20260506151920 | 51 | 5 | 4.0 | 9.0 | 0.00 | 0.00 | 0.00 | 81 | 1012.5 |
| 20260506150846 | 51 | 32 | 4.0 | 7.0 | 0.00 | 0.00 | 0.00 | 80 | 1012.5 |
| 20260506145835 | 52 | 5 | 5.0 | 10.0 | 0.00 | 0.00 | 0.00 | 80 | 1012.3 |
| 20260506144821 | 52 | 34 | 6.0 | 10.0 | 0.00 | 0.00 | 0.00 | 80 | 1012.4 |
| 20260506143758 | 52 | 34 | 6.0 | 10.0 | 0.00 | 0.00 | 0.00 | 81 | 1012.3 |
| 20260506142732 | 51 | 19 | 9.0 | 14.0 | 0.00 | 0.00 | 0.00 | 80 | 1012.3 |
| 20260506141726 | 52 | 40 | 9.0 | 14.0 | 0.00 | 0.00 | 0.00 | 80 | 1012.2 |
| 20260506140720 | 52 | 49 | 8.0 | 13.0 | 0.00 | 0.00 | 0.00 | 80 | 1012.2 |
| 20260506135712 | 52 | 26 | 9.0 | 12.0 | 0.00 | 0.00 | 0.00 | 81 | 1012.2 |
| 20260506134729 | 52 | 12 | 9.0 | 13.0 | 0.00 | 0.00 | 0.00 | 79 | 1012.3 |
| 20260506133741 | 52 | 39 | 9.0 | 13.0 | 0.00 | 0.00 | 0.00 | 78 | 1012.2 |
| 20260506132800 | 51 | 44 | 6.0 | 10.0 | 0.00 | 0.00 | 0.00 | 81 | 1012.2 |
| 20260506131752 | 51 | 30 | 5.0 | 9.0 | 0.00 | 0.00 | 0.00 | 83 | 1012.2 |
| 20260506130801 | 51 | 26 | 6.0 | 11.0 | 0.00 | 0.00 | 0.00 | 83 | 1012.2 |
| 20260506125817 | 51 | 29 | 7.0 | 14.0 | 0.00 | 0.00 | 0.00 | 83 | 1012.2 |
| 20260506124834 | 51 | 44 | 10.0 | 17.0 | 0.00 | 0.00 | 0.00 | 82 | 1012.1 |
| 20260506123846 | 51 | 44 | 13.0 | 17.0 | 0.00 | 0.00 | 0.00 | 80 | 1012.1 |
| 20260506122854 | 51 | 42 | 13.0 | 19.0 | 0.00 | 0.00 | 0.00 | 80 | 1012.1 |
| 20260506121912 | 52 | 37 | 14.0 | 19.0 | 0.00 | 0.00 | 0.00 | 78 | 1012.2 |
| 20260506115821 | 53 | 13 | 12.0 | 19.0 | 0.00 | 0.00 | 0.00 | 75 | 1011.9 |
| 20260506114827 | 53 | 355 | 11.0 | 18.0 | 0.00 | 0.00 | 0.00 | 76 | 1011.8 |
| 20260506113758 | 53 | 5 | 10.0 | 19.0 | 0.00 | 0.00 | 0.00 | 74 | 1011.7 |
| 20260506112753 | 53 | 20 | 14.0 | 19.0 | 0.00 | 0.00 | 0.00 | 74 | 1011.8 |
| 20260506111735 | 53 | 350 | 12.0 | 20.0 | 0.00 | 0.00 | 0.00 | 74 | 1011.6 |
| 20260506110711 | 53 | 347 | 13.0 | 20.0 | 0.00 | 0.00 | 0.00 | 75 | 1011.7 |
| 20260506105654 | 53 | 12 | 13.0 | 17.0 | 0.00 | 0.00 | 0.00 | 75 | 1011.7 |
| 20260506104708 | 53 | 0 | 11.0 | 17.0 | 0.00 | 0.00 | 0.00 | 75 | 1011.7 |
| 20260506102543 | 53 | 355 | 10.0 | 15.0 | 0.00 | 0.00 | 0.00 | 78 | 1011.7 |
| 20260506101607 | 52 | 351 | 11.0 | 15.0 | 0.00 | 0.00 | 0.00 | 78 | 1011.7 |
| 20260506100616 | 52 | 32 | 11.0 | 16.0 | 0.00 | 0.00 | 0.00 | 77 | 1011.8 |
| 20260506095544 | 52 | 355 | 12.0 | 16.0 | 0.00 | 0.00 | 0.00 | 77 | 1011.8 |
| 20260506094518 | 52 | 10 | 11.0 | 16.0 | 0.00 | 0.00 | 0.00 | 80 | 1011.7 |
| 20260506093502 | 52 | 0 | 12.0 | 17.0 | 0.00 | 0.00 | 0.00 | 79 | 1011.8 |
| 20260506092513 | 52 | 25 | 11.0 | 17.0 | 0.00 | 0.00 | 0.00 | 78 | 1011.8 |
| 20260506091512 | 51 | 13 | 10.0 | 15.0 | 0.00 | 0.00 | 0.00 | 78 | 1011.7 |
| 20260506090525 | 51 | 5 | 11.0 | 17.0 | 0.00 | 0.00 | 0.00 | 80 | 1011.6 |
| 20260506085518 | 51 | 342 | 12.0 | 17.0 | 0.00 | 0.00 | 0.00 | 79 | 1011.6 |
| 20260506084540 | 50 | 348 | 13.0 | 19.0 | 0.00 | 0.00 | 0.00 | 81 | 1011.5 |
| 20260506083545 | 50 | 336 | 14.0 | 19.0 | 0.00 | 0.00 | 0.00 | 82 | 1011.4 |
| 20260506081419 | 49 | 355 | 14.0 | 19.0 | 0.00 | 0.00 | 0.00 | 83 | 1011.5 |
| 20260506080407 | 49 | 348 | 13.0 | 17.0 | 0.00 | 0.00 | 0.00 | 84 | 1011.5 |